createdAt,value
2022-10-19T00:00:01.411Z,11.23
2022-10-19T00:03:45.873Z,9.90
2022-10-19T00:07:28.586Z,11.00
2022-10-19T00:11:12.147Z,8.30
2022-10-19T00:14:56.779Z,8.83
2022-10-19T00:18:41.357Z,8.10
2022-10-19T00:22:24.166Z,9.97
2022-10-19T00:26:07.144Z,9.03
2022-10-19T00:29:49.913Z,12.70
2022-10-19T00:33:32.624Z,7.60
2022-10-19T00:37:16.682Z,7.73
2022-10-19T00:40:59.502Z,9.77
2022-10-19T00:45:08.432Z,9.33
2022-10-19T00:48:54.577Z,7.67
2022-10-19T00:52:38.634Z,10.63
2022-10-19T00:56:21.324Z,9.33
2022-10-19T01:00:06.991Z,13.17
2022-10-19T01:03:49.847Z,9.73
2022-10-19T01:07:33.199Z,7.10
2022-10-19T01:11:24.870Z,13.13
2022-10-19T01:15:17.607Z,11.90
2022-10-19T01:19:08.676Z,10.83
2022-10-19T01:23:08.781Z,11.90
2022-10-19T01:27:14.308Z,15.23
2022-10-19T01:31:00.300Z,9.20
2022-10-19T01:34:48.254Z,10.70
2022-10-19T01:38:35.117Z,9.10
2022-10-19T01:42:25.314Z,9.30
2022-10-19T01:46:13.022Z,10.57
2022-10-19T01:49:58.203Z,13.33
2022-10-19T01:53:43.762Z,16.83
2022-10-19T01:57:28.991Z,14.40
2022-10-19T02:01:14.566Z,16.47
2022-10-19T02:04:58.367Z,12.67
2022-10-19T02:08:44.255Z,17.57
2022-10-19T02:12:27.720Z,17.57
2022-10-19T02:16:14.895Z,14.43
2022-10-19T02:19:58.314Z,15.07
2022-10-19T02:23:40.965Z,14.03
2022-10-19T02:27:23.734Z,12.87
2022-10-19T02:31:06.585Z,15.67
2022-10-19T02:34:50.697Z,13.67
2022-10-19T02:38:33.416Z,12.60
2022-10-19T02:42:19.070Z,13.17
2022-10-19T02:46:05.508Z,11.20
2022-10-19T02:49:50.401Z,13.27
2022-10-19T02:53:33.036Z,14.57
2022-10-19T02:57:17.702Z,21.33
2022-10-19T03:01:00.373Z,16.33
2022-10-19T03:04:44.587Z,15.07
2022-10-19T03:08:28.676Z,14.33
2022-10-19T03:12:13.567Z,15.47
2022-10-19T03:15:56.199Z,14.47
2022-10-19T03:19:38.997Z,20.13
2022-10-19T03:23:21.629Z,19.10
2022-10-19T03:27:05.853Z,15.13
2022-10-19T03:30:48.457Z,12.23
2022-10-19T03:34:31.138Z,15.73
2022-10-19T03:38:13.883Z,19.07
2022-10-19T03:41:56.508Z,15.37
2022-10-19T03:45:40.485Z,21.57
2022-10-19T03:49:23.363Z,17.73
2022-10-19T03:53:05.983Z,17.70
2022-10-19T03:56:48.646Z,16.90
2022-10-19T04:00:31.265Z,19.43
2022-10-19T04:04:16.807Z,16.07
2022-10-19T04:07:59.370Z,17.73
2022-10-19T04:11:42.074Z,20.73
2022-10-19T04:15:24.697Z,18.60
2022-10-19T04:19:07.311Z,16.77
2022-10-19T04:22:53.439Z,19.67
2022-10-19T04:26:39.754Z,19.43
2022-10-19T04:30:22.371Z,22.27
2022-10-19T04:34:05.056Z,18.03
2022-10-19T04:37:47.690Z,21.37
2022-10-19T04:41:31.727Z,29.73
2022-10-19T04:45:14.369Z,24.73
2022-10-19T04:48:58.046Z,21.80
2022-10-19T04:52:40.629Z,19.90
2022-10-19T04:56:26.356Z,20.10
2022-10-19T05:00:11.857Z,21.77
2022-10-19T05:07:43.285Z,22.37
2022-10-19T05:11:26.581Z,32.07
2022-10-19T05:15:11.777Z,22.40
2022-10-19T05:18:58.713Z,20.27
2022-10-19T05:22:41.496Z,21.30
2022-10-19T05:26:25.758Z,23.93
2022-10-19T05:30:11.081Z,20.63
2022-10-19T05:33:53.764Z,22.97
2022-10-19T05:37:36.764Z,22.10
2022-10-19T05:41:19.668Z,20.67
2022-10-19T05:45:02.237Z,26.00
2022-10-19T05:48:46.862Z,26.17
2022-10-19T05:52:29.535Z,24.70
2022-10-19T05:56:15.942Z,24.70
2022-10-19T05:59:58.541Z,22.33
2022-10-19T06:03:41.160Z,26.20
2022-10-19T06:07:25.580Z,30.27
2022-10-19T06:11:10.176Z,27.63
2022-10-19T06:14:52.837Z,31.47
2022-10-19T06:18:36.071Z,25.03
2022-10-19T06:22:19.053Z,28.97
2022-10-19T06:26:05.290Z,27.10
2022-10-19T06:29:50.140Z,27.47
2022-10-19T06:33:32.882Z,27.40
2022-10-19T06:37:15.794Z,33.50
2022-10-19T06:40:59.545Z,24.70
2022-10-19T06:44:43.511Z,25.37
2022-10-19T06:48:26.294Z,23.33
2022-10-19T06:52:08.927Z,24.53
2022-10-19T06:55:51.531Z,27.07
2022-10-19T06:59:34.135Z,32.77
2022-10-19T07:03:18.092Z,26.30
2022-10-19T07:07:00.668Z,22.90
2022-10-19T07:10:43.271Z,24.70
2022-10-19T07:14:28.388Z,22.13
2022-10-19T07:18:10.996Z,22.20
2022-10-19T07:21:54.993Z,24.13
2022-10-19T07:25:37.650Z,25.43
2022-10-19T07:29:20.263Z,19.27
2022-10-19T07:33:04.975Z,22.20
2022-10-19T07:36:48.877Z,20.57
2022-10-19T07:40:32.870Z,22.93
2022-10-19T07:44:16.128Z,24.90
2022-10-19T07:47:59.782Z,26.03
2022-10-19T07:51:42.364Z,20.97
2022-10-19T07:55:25.028Z,25.33
2022-10-19T07:59:09.205Z,24.37
2022-10-19T08:03:19.245Z,22.00
2022-10-19T08:06:54.654Z,21.43
2022-10-19T08:10:37.299Z,23.53
2022-10-19T08:14:21.267Z,19.97
2022-10-19T08:18:03.899Z,24.70
2022-10-19T08:21:47.463Z,21.53
2022-10-19T08:25:30.096Z,29.70
2022-10-19T08:29:15.091Z,30.33
2022-10-19T08:32:59.065Z,24.07
2022-10-19T08:40:30.934Z,22.80
2022-10-19T08:44:32.243Z,23.17
2022-10-19T08:48:27.143Z,24.93
2022-10-19T08:52:16.649Z,24.17
2022-10-19T08:56:07.053Z,22.43
2022-10-19T08:59:54.065Z,34.17
2022-10-19T09:03:54.801Z,26.57
2022-10-19T09:07:45.363Z,30.77
2022-10-19T09:11:30.971Z,30.80
2022-10-19T09:15:16.719Z,33.23
2022-10-19T09:19:00.796Z,30.40
2022-10-19T09:22:44.024Z,30.60
2022-10-19T09:26:30.303Z,32.13
2022-10-19T09:30:18.453Z,32.67
2022-10-19T09:34:04.663Z,35.87
2022-10-19T09:37:49.903Z,41.43
2022-10-19T09:41:32.663Z,43.63
2022-10-19T09:45:27.327Z,34.03
2022-10-19T09:49:11.351Z,34.97
2022-10-19T09:52:54.854Z,28.23
2022-10-19T09:56:40.577Z,30.63
2022-10-19T10:00:25.696Z,32.20
2022-10-19T10:04:09.075Z,27.13
2022-10-19T10:07:55.808Z,24.17
2022-10-19T10:11:39.607Z,24.40
2022-10-19T10:15:25.012Z,23.27
2022-10-19T10:19:09.916Z,24.83
2022-10-19T10:22:57.565Z,20.90
2022-10-19T10:26:41.852Z,18.77
2022-10-19T10:30:24.773Z,16.83
2022-10-19T10:34:16.612Z,18.83
2022-10-19T10:38:15.535Z,15.13
2022-10-19T10:42:01.352Z,15.17
2022-10-19T10:45:45.728Z,15.23
2022-10-19T10:49:30.016Z,14.47
2022-10-19T10:53:36.011Z,15.10
2022-10-19T10:57:20.277Z,15.77
2022-10-19T11:01:09.278Z,15.77
2022-10-19T11:04:57.779Z,18.53
2022-10-19T11:08:47.944Z,20.37
2022-10-19T11:12:35.843Z,22.80
2022-10-19T11:16:19.761Z,21.77
2022-10-19T11:20:02.382Z,21.00
2022-10-19T11:23:55.272Z,20.47
2022-10-19T11:27:46.483Z,21.97
2022-10-19T11:31:39.715Z,23.63
2022-10-19T11:35:31.941Z,20.70
2022-10-19T11:39:31.572Z,18.23
2022-10-19T11:43:20.445Z,20.87
2022-10-19T11:47:18.813Z,35.93
2022-10-19T11:51:20.500Z,22.97
2022-10-19T11:55:16.741Z,19.80
2022-10-19T11:59:03.225Z,15.63
2022-10-19T12:03:03.907Z,14.87
2022-10-19T12:06:50.953Z,15.53
2022-10-19T12:10:42.652Z,16.77
2022-10-19T12:14:27.910Z,17.10
2022-10-19T12:18:14.080Z,18.70
2022-10-19T12:21:59.924Z,16.27
2022-10-19T12:25:44.976Z,12.30
2022-10-19T12:29:30.015Z,13.40
2022-10-19T12:33:18.324Z,10.63
2022-10-19T12:37:04.755Z,10.90
2022-10-19T12:40:53.659Z,9.57
2022-10-19T12:45:05.609Z,7.93
2022-10-19T12:49:28.977Z,11.00
2022-10-19T12:53:24.336Z,7.63
2022-10-19T12:57:30.634Z,6.37
2022-10-19T13:01:21.063Z,7.10
2022-10-19T13:05:04.268Z,8.77
2022-10-19T13:08:49.861Z,7.93
2022-10-19T13:12:48.069Z,7.23
2022-10-19T13:17:06.273Z,7.83
2022-10-19T13:20:54.042Z,8.20
2022-10-19T13:24:38.054Z,7.77
2022-10-19T13:28:40.732Z,7.03
2022-10-19T13:32:38.115Z,9.20
2022-10-19T13:36:22.017Z,16.57
2022-10-19T13:40:23.619Z,29.57
2022-10-19T13:44:21.050Z,12.70
2022-10-19T13:48:07.627Z,13.27
2022-10-19T13:52:02.365Z,5.93
2022-10-19T13:55:56.738Z,8.87
2022-10-19T14:00:03.797Z,6.20
2022-10-19T14:04:02.241Z,5.90
2022-10-19T14:07:51.125Z,7.07
2022-10-19T14:11:35.662Z,9.40
2022-10-19T14:15:27.414Z,8.50
2022-10-19T14:19:14.023Z,5.57
2022-10-19T14:22:56.661Z,5.33
2022-10-19T14:26:39.313Z,6.60
2022-10-19T14:30:25.129Z,5.13
2022-10-19T14:34:10.187Z,6.63
2022-10-19T14:37:52.945Z,8.50
2022-10-19T14:41:37.074Z,7.38
2022-10-19T14:45:21.789Z,6.87
2022-10-19T14:49:10.919Z,10.37
2022-10-19T14:53:01.330Z,6.50
2022-10-19T14:56:47.956Z,5.95
2022-10-19T15:00:33.018Z,8.30
2022-10-19T15:04:20.884Z,4.40
2022-10-19T15:08:09.289Z,9.63
2022-10-19T15:11:56.074Z,8.00
2022-10-19T15:15:38.659Z,7.53
2022-10-19T15:19:27.687Z,7.97
2022-10-19T15:23:31.023Z,4.93
2022-10-19T15:27:20.374Z,7.77
2022-10-19T15:31:05.844Z,7.50
2022-10-19T15:34:49.869Z,5.60
2022-10-19T15:38:34.647Z,7.03
2022-10-19T15:42:38.742Z,7.33
2022-10-19T15:46:32.851Z,8.20
2022-10-19T15:50:32.817Z,12.57
2022-10-19T15:54:17.228Z,9.67
2022-10-19T15:58:00.119Z,6.43
2022-10-19T16:01:43.601Z,6.60
2022-10-19T16:05:27.760Z,5.93
2022-10-19T16:09:15.642Z,7.97
2022-10-19T16:12:58.254Z,9.00
2022-10-19T16:16:41.909Z,9.70
2022-10-19T16:20:24.993Z,8.53
2022-10-19T16:24:09.045Z,8.83
2022-10-19T16:27:51.659Z,6.00
2022-10-19T16:31:34.274Z,4.87
2022-10-19T16:35:17.305Z,5.80
2022-10-19T16:39:01.045Z,5.47
2022-10-19T16:42:45.012Z,5.90
2022-10-19T16:46:27.696Z,5.60
2022-10-19T16:50:12.216Z,6.93
2022-10-19T16:53:58.904Z,8.60
2022-10-19T16:57:41.546Z,7.87
2022-10-19T17:01:25.630Z,11.97
2022-10-19T17:05:08.781Z,6.50
2022-10-19T17:12:54.705Z,11.07
2022-10-19T17:16:39.444Z,8.37
2022-10-19T17:20:22.078Z,7.37
2022-10-19T17:24:05.582Z,6.43
2022-10-19T17:27:51.131Z,8.13
2022-10-19T17:31:33.879Z,7.80
2022-10-19T17:35:17.968Z,9.33
2022-10-19T17:39:02.372Z,11.13
2022-10-19T17:42:44.978Z,12.93
2022-10-19T17:46:29.841Z,10.60
2022-10-19T17:50:12.428Z,10.57
2022-10-19T17:53:58.208Z,10.57
2022-10-19T17:57:40.860Z,9.17
2022-10-19T18:01:26.930Z,9.23
2022-10-19T18:05:10.432Z,9.47
2022-10-19T18:08:54.334Z,8.63
2022-10-19T18:12:38.405Z,7.80
2022-10-19T18:16:23.122Z,9.23
2022-10-19T18:20:06.887Z,10.37
2022-10-19T18:23:49.611Z,7.63
2022-10-19T18:27:32.462Z,8.27
2022-10-19T18:31:19.534Z,12.07
2022-10-19T18:35:02.189Z,10.70
2022-10-19T18:38:44.810Z,10.73
2022-10-19T18:42:30.519Z,9.13
2022-10-19T18:46:13.576Z,8.83
2022-10-19T18:49:57.578Z,9.20
2022-10-19T18:53:40.198Z,8.83
2022-10-19T18:57:22.779Z,12.07
2022-10-19T19:01:06.484Z,10.53
2022-10-19T19:04:49.088Z,10.97
2022-10-19T19:08:33.277Z,10.53
2022-10-19T19:12:16.015Z,11.07
2022-10-19T19:15:59.100Z,9.13
2022-10-19T19:19:42.083Z,11.00
2022-10-19T19:23:24.725Z,11.30
2022-10-19T19:27:09.242Z,10.93
2022-10-19T19:30:54.433Z,11.10
2022-10-19T19:34:37.239Z,11.07
2022-10-19T19:38:19.885Z,10.20
2022-10-19T19:42:02.527Z,10.03
2022-10-19T19:45:56.747Z,9.63
2022-10-19T19:49:42.160Z,9.30
2022-10-19T19:53:24.911Z,8.90
2022-10-19T19:57:07.978Z,11.03
2022-10-19T20:00:51.970Z,9.03
2022-10-19T20:04:34.783Z,10.07
2022-10-19T20:08:17.402Z,10.63
2022-10-19T20:12:00.125Z,9.77
2022-10-19T20:15:42.788Z,11.60
2022-10-19T20:19:26.846Z,9.83
2022-10-19T20:23:12.460Z,10.20
2022-10-19T20:26:55.816Z,15.33
2022-10-19T20:30:38.540Z,11.83
2022-10-19T20:34:23.215Z,10.43
2022-10-19T20:38:08.116Z,13.50
2022-10-19T20:41:50.843Z,10.67
2022-10-19T20:45:33.476Z,15.90
2022-10-19T20:49:16.178Z,11.23
2022-10-19T20:52:58.852Z,11.47
2022-10-19T20:56:43.323Z,10.53
2022-10-19T21:00:25.961Z,15.23
2022-10-19T21:04:10.803Z,11.43
2022-10-19T21:07:53.809Z,13.70
2022-10-19T21:11:42.641Z,22.97
2022-10-19T21:15:26.440Z,17.43
2022-10-19T21:19:11.777Z,14.70
2022-10-19T21:22:54.373Z,16.13
2022-10-19T21:26:37.707Z,12.77
2022-10-19T21:30:22.028Z,13.03
2022-10-19T21:34:05.530Z,13.87
2022-10-19T21:37:48.134Z,16.03
2022-10-19T21:41:32.098Z,14.20
2022-10-19T21:45:30.991Z,14.50
2022-10-19T21:49:15.223Z,17.20
2022-10-19T21:52:58.060Z,17.43
2022-10-19T21:56:40.789Z,18.87
2022-10-19T22:00:23.434Z,16.00
2022-10-19T22:04:07.923Z,17.10
2022-10-19T22:07:51.922Z,18.37
2022-10-19T22:11:34.781Z,18.47
2022-10-19T22:15:17.670Z,17.93
2022-10-19T22:19:00.452Z,21.03
2022-10-19T22:22:43.195Z,18.00
2022-10-19T22:26:28.947Z,17.53
2022-10-19T22:30:11.953Z,20.00
2022-10-19T22:33:54.621Z,18.90
2022-10-19T22:37:37.236Z,18.10
2022-10-19T22:41:19.895Z,17.97
2022-10-19T22:45:03.923Z,19.53
2022-10-19T22:48:46.544Z,21.47
2022-10-19T22:52:29.168Z,20.70
2022-10-19T22:56:13.056Z,24.37
2022-10-19T22:59:55.669Z,22.00
2022-10-19T23:03:40.389Z,20.93
2022-10-19T23:07:23.043Z,20.30
2022-10-19T23:11:06.044Z,20.67
2022-10-19T23:14:48.713Z,24.97
2022-10-19T23:18:32.096Z,23.57
2022-10-19T23:22:16.068Z,23.30
2022-10-19T23:26:02.828Z,22.27
2022-10-19T23:29:45.472Z,22.77
2022-10-19T23:33:28.133Z,23.80
2022-10-19T23:37:10.751Z,26.10
2022-10-19T23:40:54.726Z,26.33
2022-10-19T23:44:37.416Z,28.93
2022-10-19T23:48:20.085Z,28.43
2022-10-19T23:52:02.790Z,30.63
2022-10-19T23:55:45.434Z,30.90
2022-10-19T23:59:29.514Z,33.93
